Time;durP1;ratioP1;P1;durP2;ratioP2;P2;SDS_P1;SDS_P2;PMS_P1;PMS_P2;Temp;Humidity;BMP_temperature;BMP_pressure;BME280_temperature;BME280_humidity;BME280_pressure;Samples;Min_cycle;Max_cycle;Signal;HPM_P1;HPM_P2
2022/10/01 00:01:08;;;;;;;1.88;1.40;;;11.30;99.90;;;;;;5054034;28;22399;-74
2022/10/01 00:03:34;;;;;;;2.97;1.95;;;11.20;99.90;;;;;;5053901;28;20488;-74
2022/10/01 00:06:02;;;;;;;3.58;1.83;;;11.30;99.90;;;;;;5053742;28;20104;-74
2022/10/01 00:08:29;;;;;;;6.27;2.53;;;11.30;99.90;;;;;;5054125;28;20025;-75
2022/10/01 00:10:55;;;;;;;2.15;1.77;;;11.30;99.90;;;;;;5054078;28;20467;-75
2022/10/01 00:13:21;;;;;;;2.72;1.65;;;11.30;99.90;;;;;;5054226;28;20024;-74
2022/10/01 00:15:47;;;;;;;2.47;1.70;;;11.30;99.90;;;;;;5052893;28;20399;-75
2022/10/01 00:18:13;;;;;;;5.13;2.70;;;11.30;99.90;;;;;;5054130;28;20013;-74
2022/10/01 00:20:42;;;;;;;4.57;2.00;;;11.50;99.90;;;;;;5053854;28;20021;-75
2022/10/01 00:23:09;;;;;;;4.93;2.35;;;11.20;99.90;;;;;;5053774;28;20025;-74
2022/10/01 00:25:35;;;;;;;5.32;2.58;;;11.20;99.90;;;;;;5053802;28;20082;-75
2022/10/01 00:28:01;;;;;;;3.17;2.28;;;11.30;99.90;;;;;;5054101;28;20023;-75
2022/10/01 00:30:26;;;;;;;3.50;2.00;;;11.20;99.90;;;;;;5052474;28;20025;-75
2022/10/01 00:32:53;;;;;;;3.40;1.65;;;11.20;99.90;;;;;;5054382;28;20392;-75
2022/10/01 00:35:21;;;;;;;3.30;1.73;;;11.20;99.90;;;;;;5054025;28;20543;-75
2022/10/01 00:37:51;;;;;;;2.97;1.45;;;11.20;99.90;;;;;;5063790;23;20032;-75
2022/10/01 00:40:18;;;;;;;3.25;1.92;;;11.20;99.90;;;;;;5055890;28;20039;-75
2022/10/01 00:42:44;;;;;;;3.10;1.88;;;11.20;99.90;;;;;;5073479;28;20032;-75
2022/10/01 00:45:11;;;;;;;2.85;1.35;;;11.20;99.90;;;;;;5055738;28;20038;-75
2022/10/01 00:47:57;;;;;;;4.63;2.00;;;11.20;99.90;;;;;;5073672;28;20020;-75
2022/10/01 00:50:33;;;;;;;2.92;1.70;;;11.20;99.90;;;;;;5055776;28;20021;-75
2022/10/01 00:53:03;;;;;;;4.18;1.35;;;11.20;99.90;;;;;;5077706;28;20024;-75
2022/10/01 00:55:35;;;;;;;2.38;1.63;;;11.30;99.90;;;;;;5078057;28;20041;-75
2022/10/01 00:58:06;;;;;;;1.02;0.70;;;11.30;99.90;;;;;;5077605;28;20032;-75
2022/10/01 01:00:32;;;;;;;3.30;1.42;;;11.20;99.90;;;;;;5077766;28;20025;-75
2022/10/01 01:02:57;;;;;;;3.97;1.73;;;11.20;99.90;;;;;;5077478;28;20090;-75
2022/10/01 01:05:23;;;;;;;3.92;1.77;;;11.20;99.90;;;;;;5077331;28;20524;-75
2022/10/01 01:07:51;;;;;;;1.85;0.98;;;11.20;99.90;;;;;;5077221;28;20099;-75
2022/10/01 01:10:26;;;;;;;1.90;1.15;;;11.20;99.90;;;;;;5077485;28;20511;-75
2022/10/01 01:13:20;;;;;;;0.98;0.50;;;11.30;99.90;;;;;;5098776;22;20047;-74
2022/10/01 01:16:07;;;;;;;2.50;0.70;;;11.20;99.90;;;;;;5056985;28;20063;-75
2022/10/01 01:18:48;;;;;;;3.10;0.70;;;11.30;99.90;;;;;;5056908;28;20053;-75
2022/10/01 01:21:52;;;;;;;1.25;0.90;;;11.20;99.90;;;;;;5037051;28;20555;-75
2022/10/01 01:24:54;;;;;;;1.10;0.77;;;11.20;99.90;;;;;;4995551;28;20050;-74
2022/10/01 01:27:32;;;;;;;1.90;0.98;;;11.30;99.90;;;;;;5033214;28;20038;-74
2022/10/01 01:30:07;;;;;;;1.88;0.98;;;11.30;99.90;;;;;;5035425;28;20116;-75
2022/10/01 01:32:47;;;;;;;2.60;0.70;;;11.90;99.90;;;;;;5036663;28;20101;-77
2022/10/01 01:35:21;;;;;;;4.00;0.90;;;11.30;99.90;;;;;;5035510;28;20075;-77
2022/10/01 01:37:53;;;;;;;3.20;1.10;;;11.20;99.90;;;;;;5036572;28;20125;-77
2022/10/01 01:40:20;;;;;;;2.33;0.95;;;11.30;99.90;;;;;;5035237;28;20033;-76
2022/10/01 01:42:48;;;;;;;2.33;0.55;;;11.20;99.90;;;;;;5036321;28;20120;-77
2022/10/01 01:45:23;;;;;;;2.20;1.40;;;11.20;99.90;;;;;;5071571;22;20061;-76
2022/10/01 01:47:54;;;;;;;2.53;0.68;;;14.60;99.90;;;;;;5000332;28;20026;-75
2022/10/01 01:50:22;;;;;;;1.42;0.75;;;13.10;99.90;;;;;;5017498;28;20028;-76
2022/10/01 01:52:48;;;;;;;1.13;0.73;;;11.60;99.90;;;;;;5016960;28;20073;-75
2022/10/01 01:55:13;;;;;;;1.38;0.40;;;11.30;99.90;;;;;;5017407;28;20066;-76
2022/10/01 01:57:42;;;;;;;2.50;0.52;;;11.30;99.90;;;;;;5016946;28;20026;-76
2022/10/01 02:00:10;;;;;;;0.98;0.40;;;11.30;99.90;;;;;;5016608;28;20033;-75
2022/10/01 02:02:38;;;;;;;1.53;0.30;;;11.30;99.90;;;;;;5017021;28;20117;-75
2022/10/01 02:05:08;;;;;;;0.40;0.30;;;11.30;99.90;;;;;;5017345;28;20507;-76
2022/10/01 02:07:34;;;;;;;0.95;0.20;;;11.30;99.90;;;;;;4999341;28;20034;-75
2022/10/01 02:10:37;;;;;;;0.57;0.22;;;11.30;99.90;;;;;;4999150;28;20480;-75
2022/10/01 02:13:21;;;;;;;0.77;0.50;;;11.30;99.90;;;;;;5016879;28;20032;-76
2022/10/01 02:16:10;;;;;;;1.27;0.60;;;11.30;99.90;;;;;;5017339;28;20021;-75
2022/10/01 02:18:59;;;;;;;0.43;0.13;;;11.30;99.90;;;;;;5016893;28;20033;-75
2022/10/01 02:22:00;;;;;;;0.45;0.20;;;11.30;99.90;;;;;;5016752;28;20030;-76
2022/10/01 02:24:37;;;;;;;1.83;0.25;;;11.30;99.90;;;;;;4918853;29;20032;-76
2022/10/01 02:27:14;;;;;;;2.50;0.10;;;11.30;99.90;;;;;;5004804;28;20088;-76
2022/10/01 02:29:42;;;;;;;3.03;0.20;;;11.30;99.90;;;;;;5016647;28;20548;-76
2022/10/01 02:32:09;;;;;;;1.05;0.22;;;11.40;99.90;;;;;;5016695;28;20133;-76
2022/10/01 02:34:37;;;;;;;1.65;0.13;;;11.40;99.90;;;;;;5015888;28;20056;-76
2022/10/01 02:37:05;;;;;;;1.35;0.00;;;11.40;99.90;;;;;;4998830;28;20026;-76
2022/10/01 02:39:32;;;;;;;0.10;0.10;;;11.40;99.90;;;;;;4999071;28;20037;-76
2022/10/01 02:41:59;;;;;;;0.10;0.00;;;11.40;99.90;;;;;;4998599;28;20042;-76
2022/10/01 02:44:36;;;;;;;0.98;0.10;;;11.90;99.90;;;;;;5016837;28;20464;-76
2022/10/01 02:47:10;;;;;;;0.28;0.10;;;11.40;99.90;;;;;;4998894;28;20030;-76
2022/10/01 02:49:40;;;;;;;0.10;0.10;;;11.40;99.90;;;;;;5016272;28;20101;-76
2022/10/01 02:52:27;;;;;;;0.10;0.00;;;11.40;99.90;;;;;;5015981;28;20032;-76
2022/10/01 02:55:07;;;;;;;0.90;0.10;;;11.40;99.90;;;;;;4998647;28;20053;-76
2022/10/01 02:57:34;;;;;;;4.03;0.40;;;11.40;99.90;;;;;;5016039;28;20021;-76
2022/10/01 03:00:04;;;;;;;0.30;0.30;;;11.40;99.90;;;;;;4998106;28;20113;-76
2022/10/01 03:02:30;;;;;;;0.20;0.10;;;11.50;99.90;;;;;;5015315;28;20484;-76
2022/10/01 03:04:56;;;;;;;0.40;0.15;;;11.60;99.90;;;;;;5015195;28;20030;-76
2022/10/01 03:07:23;;;;;;;0.70;0.43;;;11.60;99.90;;;;;;5015139;28;20037;-76
2022/10/01 03:09:49;;;;;;;0.30;0.20;;;11.60;99.90;;;;;;5015649;28;20026;-76
2022/10/01 03:12:16;;;;;;;0.20;0.00;;;11.60;99.90;;;;;;4997608;28;20049;-76
2022/10/01 03:14:43;;;;;;;1.08;0.20;;;11.70;99.90;;;;;;5014964;28;20519;-76
2022/10/01 03:17:09;;;;;;;0.40;0.20;;;11.70;99.90;;;;;;5015278;28;20477;-76
2022/10/01 03:19:35;;;;;;;0.65;0.10;;;11.70;99.90;;;;;;4997496;28;20030;-76
2022/10/01 03:22:01;;;;;;;0.75;0.28;;;11.70;99.90;;;;;;4997583;28;20480;-76
2022/10/01 03:24:27;;;;;;;0.28;0.28;;;11.70;99.90;;;;;;5015638;28;20025;-76
2022/10/01 03:26:55;;;;;;;0.30;0.30;;;11.80;99.90;;;;;;5014972;28;20093;-76
2022/10/01 03:29:21;;;;;;;2.40;0.57;;;11.80;99.90;;;;;;5015219;28;20465;-76
2022/10/01 03:31:47;;;;;;;1.05;0.50;;;11.80;99.90;;;;;;5014902;28;20356;-76
2022/10/01 03:34:12;;;;;;;0.70;0.28;;;11.90;99.90;;;;;;5014852;28;20061;-76
2022/10/01 03:36:38;;;;;;;0.80;0.52;;;11.90;99.90;;;;;;4997332;28;20033;-76
2022/10/01 03:39:04;;;;;;;0.60;0.50;;;11.90;99.90;;;;;;5015164;28;20026;-76
2022/10/01 03:41:29;;;;;;;1.88;0.65;;;11.90;99.90;;;;;;4997117;28;20431;-76
2022/10/01 03:43:55;;;;;;;0.75;0.60;;;11.90;99.90;;;;;;4997234;28;20030;-77
2022/10/01 03:46:21;;;;;;;0.63;0.63;;;11.90;99.90;;;;;;5014574;28;20040;-76
2022/10/01 03:48:48;;;;;;;1.75;1.13;;;11.90;99.90;;;;;;5014613;28;20022;-76
2022/10/01 03:51:13;;;;;;;0.95;0.95;;;12.00;99.90;;;;;;5015136;28;20495;-76
2022/10/01 03:53:39;;;;;;;2.28;1.10;;;12.00;99.90;;;;;;5015252;28;20021;-75
2022/10/01 03:56:05;;;;;;;1.00;0.95;;;12.00;99.90;;;;;;4997038;28;20029;-76
2022/10/01 03:58:30;;;;;;;2.58;1.25;;;12.00;99.90;;;;;;5014622;28;20085;-76
2022/10/01 04:00:56;;;;;;;1.38;1.10;;;12.00;99.90;;;;;;4997152;28;20477;-76
2022/10/01 04:03:22;;;;;;;1.27;1.27;;;12.10;99.90;;;;;;5014233;28;20384;-76
2022/10/01 04:05:48;;;;;;;1.50;1.35;;;12.00;99.90;;;;;;5014621;28;20014;-76
2022/10/01 04:08:14;;;;;;;1.73;1.63;;;12.10;99.90;;;;;;5014125;28;20477;-76
2022/10/01 04:10:39;;;;;;;1.35;1.25;;;12.00;99.90;;;;;;5014230;28;20033;-76
2022/10/01 04:13:06;;;;;;;2.10;1.13;;;12.10;99.90;;;;;;4996876;28;20030;-76
2022/10/01 04:15:32;;;;;;;1.65;1.05;;;12.10;99.90;;;;;;5014122;28;20026;-76
2022/10/01 04:17:59;;;;;;;3.30;1.38;;;12.10;99.90;;;;;;4996345;28;20588;-76
2022/10/01 04:20:25;;;;;;;1.65;1.55;;;12.10;99.90;;;;;;5013748;28;20026;-76
2022/10/01 04:22:50;;;;;;;1.25;1.00;;;12.10;99.90;;;;;;5013750;28;20037;-76
2022/10/01 04:25:16;;;;;;;1.40;1.30;;;12.10;99.90;;;;;;5013159;28;20033;-76
2022/10/01 04:27:54;;;;;;;1.30;1.20;;;12.10;99.90;;;;;;5013760;28;20101;-76
2022/10/01 04:30:20;;;;;;;1.38;1.27;;;12.10;99.90;;;;;;4996031;28;20025;-77
2022/10/01 04:32:46;;;;;;;0.98;0.98;;;12.10;99.90;;;;;;5013915;28;20080;-76
2022/10/01 04:35:12;;;;;;;1.40;1.30;;;12.20;99.90;;;;;;5013847;28;20125;-76
2022/10/01 04:37:37;;;;;;;1.95;1.20;;;12.20;99.90;;;;;;5013567;28;20535;-76
2022/10/01 04:40:04;;;;;;;3.50;1.73;;;12.30;99.90;;;;;;5013477;28;20416;-76
2022/10/01 04:42:30;;;;;;;2.65;1.38;;;12.30;99.90;;;;;;4995921;28;20030;-76
2022/10/01 04:44:56;;;;;;;1.63;1.52;;;12.30;99.90;;;;;;5013480;28;20114;-76
2022/10/01 04:47:22;;;;;;;4.13;1.80;;;12.30;99.90;;;;;;4996086;28;20546;-76
2022/10/01 04:49:47;;;;;;;4.57;2.30;;;12.40;99.90;;;;;;5013493;28;20026;-76
2022/10/01 04:52:13;;;;;;;1.65;1.55;;;13.00;99.90;;;;;;4996110;28;20048;-75
2022/10/01 04:54:39;;;;;;;2.35;1.88;;;12.40;99.90;;;;;;5013435;28;20017;-76
2022/10/01 04:57:05;;;;;;;1.90;1.50;;;12.50;99.90;;;;;;5013708;28;20036;-76
2022/10/01 04:59:30;;;;;;;2.70;1.75;;;12.50;99.90;;;;;;4995858;28;20074;-76
2022/10/01 05:01:56;;;;;;;2.30;1.85;;;13.00;99.90;;;;;;5013310;28;20062;-77
2022/10/01 05:04:22;;;;;;;2.50;1.92;;;12.50;99.90;;;;;;4995762;28;20022;-76
2022/10/01 05:06:47;;;;;;;2.60;2.38;;;12.50;99.90;;;;;;4996132;28;20112;-76
2022/10/01 05:09:13;;;;;;;1.88;1.70;;;12.60;99.90;;;;;;4995725;28;20496;-76
2022/10/01 05:11:39;;;;;;;2.65;1.75;;;12.60;99.90;;;;;;5013898;28;20025;-76
2022/10/01 05:14:04;;;;;;;1.42;1.33;;;12.60;99.90;;;;;;5013580;28;20049;-76
2022/10/01 05:16:30;;;;;;;1.60;1.50;;;12.60;99.90;;;;;;5013629;28;20029;-75
2022/10/01 05:18:55;;;;;;;3.90;1.98;;;12.60;99.90;;;;;;5014081;28;20025;-77
2022/10/01 05:21:22;;;;;;;1.27;1.13;;;12.60;99.90;;;;;;5014687;28;20025;-77
2022/10/01 05:23:47;;;;;;;8.38;1.70;;;12.60;99.90;;;;;;4996862;28;20045;-77
2022/10/01 05:26:13;;;;;;;1.70;1.30;;;12.60;99.90;;;;;;4997060;28;20014;-77
2022/10/01 05:28:43;;;;;;;2.03;1.20;;;12.60;99.90;;;;;;4997252;28;20018;-77
2022/10/01 05:31:09;;;;;;;5.43;1.55;;;13.10;99.90;;;;;;4997116;28;20069;-77
2022/10/01 05:33:35;;;;;;;3.80;1.42;;;12.50;99.90;;;;;;5015000;28;20503;-77
2022/10/01 05:36:03;;;;;;;2.60;1.52;;;12.50;99.90;;;;;;4997051;28;20018;-77
2022/10/01 05:38:29;;;;;;;2.10;1.48;;;12.80;99.90;;;;;;5018268;28;20499;-77
2022/10/01 05:40:55;;;;;;;1.40;1.00;;;12.30;99.90;;;;;;5018994;28;20018;-76
2022/10/01 05:43:20;;;;;;;1.77;1.58;;;12.40;99.90;;;;;;5019733;28;20057;-77
2022/10/01 05:45:46;;;;;;;4.68;2.28;;;12.40;99.90;;;;;;5001371;28;20026;-77
2022/10/01 05:48:11;;;;;;;1.58;1.48;;;12.40;99.90;;;;;;5019367;28;20022;-78
2022/10/01 05:50:39;;;;;;;3.05;1.15;;;12.40;99.90;;;;;;5019013;28;20024;-78
2022/10/01 05:53:05;;;;;;;3.22;1.60;;;12.30;99.90;;;;;;5018956;28;20037;-77
2022/10/01 05:55:33;;;;;;;3.42;1.42;;;12.30;99.90;;;;;;5001736;28;20378;-77
2022/10/01 05:58:01;;;;;;;5.40;1.67;;;12.20;99.90;;;;;;5001121;28;20026;-76
2022/10/01 06:00:27;;;;;;;3.63;1.80;;;12.20;99.90;;;;;;5017383;28;20117;-77
2022/10/01 06:02:54;;;;;;;2.15;1.70;;;12.30;99.90;;;;;;5018101;28;20026;-77
2022/10/01 06:05:20;;;;;;;2.40;1.25;;;12.20;99.90;;;;;;5018436;28;20033;-77
2022/10/01 06:07:46;;;;;;;1.70;1.20;;;12.20;99.90;;;;;;5018622;28;20061;-78
2022/10/01 06:10:12;;;;;;;1.70;1.27;;;12.20;99.90;;;;;;4999751;28;20105;-78
2022/10/01 06:12:38;;;;;;;3.05;1.55;;;12.30;99.90;;;;;;5018307;28;20094;-77
2022/10/01 06:15:04;;;;;;;5.93;1.67;;;12.20;99.90;;;;;;5000848;28;20026;-77
2022/10/01 06:17:29;;;;;;;4.50;1.40;;;12.20;99.90;;;;;;5018563;28;20389;-77
2022/10/01 06:19:55;;;;;;;3.47;1.27;;;12.20;99.90;;;;;;5018465;28;20037;-77
2022/10/01 06:22:21;;;;;;;3.53;1.65;;;12.20;99.90;;;;;;5018560;28;20145;-77
2022/10/01 06:24:46;;;;;;;3.10;1.40;;;12.30;99.90;;;;;;5018197;28;20496;-77
2022/10/01 06:27:12;;;;;;;1.50;1.38;;;12.30;99.90;;;;;;5017279;28;20048;-78
2022/10/01 06:29:37;;;;;;;3.53;1.30;;;12.30;99.90;;;;;;5017116;28;20049;-77
2022/10/01 06:32:03;;;;;;;1.88;1.35;;;12.40;99.90;;;;;;5016753;28;20046;-77
2022/10/01 06:34:28;;;;;;;4.35;1.17;;;12.40;99.90;;;;;;4999405;28;20017;-77
2022/10/01 06:36:54;;;;;;;7.47;1.33;;;12.70;99.90;;;;;;5016872;28;20041;-77
2022/10/01 06:39:19;;;;;;;2.42;1.30;;;12.60;99.90;;;;;;5016824;28;20022;-77
2022/10/01 06:41:46;;;;;;;2.50;2.00;;;13.00;99.90;;;;;;4999071;28;20028;-77
2022/10/01 06:44:12;;;;;;;9.18;1.50;;;12.80;99.90;;;;;;4999313;28;20048;-77
2022/10/01 06:46:37;;;;;;;2.13;1.35;;;12.80;99.90;;;;;;5016902;28;20085;-77
2022/10/01 06:49:03;;;;;;;6.82;2.28;;;12.90;99.90;;;;;;5016614;28;20432;-77
2022/10/01 06:54:13;;;;;;;3.50;1.10;;;13.40;99.90;;;;;;5018329;28;20041;-77
2022/10/01 06:56:39;;;;;;;5.00;0.80;;;13.30;99.90;;;;;;5017328;28;20030;-77
2022/10/01 06:59:04;;;;;;;2.67;0.70;;;13.60;99.90;;;;;;5017180;28;20065;-77
2022/10/01 07:01:31;;;;;;;4.13;0.85;;;13.70;99.90;;;;;;5016986;28;20112;-76
2022/10/01 07:03:58;;;;;;;2.10;0.95;;;14.00;99.90;;;;;;5015100;28;20069;-76
2022/10/01 07:06:24;;;;;;;2.13;0.88;;;14.10;99.90;;;;;;5015132;28;20469;-77
2022/10/01 07:08:50;;;;;;;5.70;0.80;;;14.10;99.90;;;;;;5015071;28;20076;-77
2022/10/01 07:11:16;;;;;;;0.80;0.30;;;14.10;99.90;;;;;;5015270;28;20030;-77
2022/10/01 07:13:41;;;;;;;5.38;0.75;;;14.10;99.90;;;;;;5015084;28;20022;-77
2022/10/01 07:16:07;;;;;;;3.42;0.60;;;14.00;99.90;;;;;;5015514;28;20476;-76
2022/10/01 07:18:33;;;;;;;3.05;0.47;;;13.90;99.90;;;;;;4997206;28;20528;-76
2022/10/01 07:21:00;;;;;;;3.67;0.47;;;13.90;99.90;;;;;;5015659;28;20022;-77
2022/10/01 07:23:25;;;;;;;4.32;1.45;;;13.90;99.90;;;;;;5016384;28;20392;-78
2022/10/01 07:25:51;;;;;;;3.83;0.22;;;13.80;99.90;;;;;;5016255;28;20022;-78
2022/10/01 07:28:22;;;;;;;3.50;0.80;;;13.80;99.90;;;;;;5017029;28;20026;-79
2022/10/01 07:31:06;;;;;;;5.82;0.90;;;13.90;99.90;;;;;;4999677;28;20029;-79
2022/10/01 07:33:32;;;;;;;3.65;0.10;;;13.90;99.90;;;;;;5017115;28;20097;-77
2022/10/01 07:36:05;;;;;;;1.60;0.45;;;14.00;99.90;;;;;;5016220;28;20056;-77
2022/10/01 07:38:34;;;;;;;4.93;0.20;;;14.10;99.90;;;;;;5014991;28;20026;-78
2022/10/01 07:41:03;;;;;;;5.55;0.00;;;14.10;99.90;;;;;;5016471;28;20018;-77
2022/10/01 07:43:30;;;;;;;3.00;0.10;;;14.20;99.90;;;;;;5016336;28;20022;-77
2022/10/01 07:45:56;;;;;;;2.35;0.55;;;14.10;99.90;;;;;;5015498;28;20030;-77
2022/10/01 07:48:23;;;;;;;4.60;0.30;;;14.10;99.90;;;;;;5015080;28;20026;-76
2022/10/01 07:50:49;;;;;;;3.35;0.43;;;14.60;99.90;;;;;;5015802;28;20050;-77
2022/10/01 07:53:15;;;;;;;5.82;0.10;;;14.50;99.90;;;;;;5015381;28;20368;-77
2022/10/01 07:55:41;;;;;;;9.05;0.10;;;14.60;99.90;;;;;;5015519;28;20026;-77
2022/10/01 07:58:06;;;;;;;2.05;0.10;;;14.60;99.90;;;;;;5015446;28;20041;-77
2022/10/01 08:00:33;;;;;;;3.78;0.20;;;14.60;99.90;;;;;;5015195;28;20025;-77
2022/10/01 08:02:59;;;;;;;0.63;0.10;;;14.60;99.90;;;;;;4997133;28;20393;-77
2022/10/01 08:05:31;;;;;;;2.47;0.22;;;14.60;99.90;;;;;;4997083;28;20026;-77
2022/10/01 08:08:02;;;;;;;6.53;0.60;;;14.70;99.90;;;;;;5014686;28;20018;-77
2022/10/01 08:10:28;;;;;;;3.30;0.10;;;14.70;99.90;;;;;;4996684;28;20511;-76
2022/10/01 08:13:06;;;;;;;1.83;0.40;;;14.70;99.90;;;;;;5014011;28;20041;-76
2022/10/01 08:15:32;;;;;;;2.05;0.25;;;14.80;99.90;;;;;;4996232;28;20030;-75
2022/10/01 08:18:01;;;;;;;3.60;0.10;;;14.50;99.90;;;;;;5013890;28;20080;-76
2022/10/01 08:20:27;;;;;;;4.13;0.25;;;14.50;99.90;;;;;;4996023;28;20025;-76
2022/10/01 08:22:53;;;;;;;1.60;0.20;;;14.40;99.90;;;;;;5013658;28;20026;-76
2022/10/01 08:25:18;;;;;;;7.90;0.22;;;15.00;99.90;;;;;;5014521;28;20030;-77
2022/10/01 08:27:44;;;;;;;2.40;0.28;;;14.40;99.90;;;;;;5014082;28;20471;-77
2022/10/01 08:30:12;;;;;;;5.15;0.40;;;14.40;99.90;;;;;;4996370;28;20026;-77
2022/10/01 08:32:38;;;;;;;2.70;0.00;;;14.50;99.90;;;;;;5014316;28;20047;-77
2022/10/01 08:35:04;;;;;;;4.85;0.00;;;14.60;99.90;;;;;;5014120;28;20509;-77
2022/10/01 08:37:29;;;;;;;6.70;0.45;;;14.60;99.90;;;;;;4996522;28;20034;-76
2022/10/01 08:39:56;;;;;;;3.65;0.10;;;14.70;99.90;;;;;;4996437;28;20075;-76
2022/10/01 08:42:24;;;;;;;2.90;0.10;;;14.80;99.90;;;;;;5014048;28;20022;-75
2022/10/01 08:44:51;;;;;;;4.60;0.35;;;14.70;99.90;;;;;;5014186;28;20478;-77
2022/10/01 08:47:36;;;;;;;8.18;0.10;;;14.70;99.90;;;;;;5014174;28;20029;-77
2022/10/01 08:50:11;;;;;;;3.08;0.47;;;14.80;99.90;;;;;;5014170;28;20045;-77
2022/10/01 08:52:45;;;;;;;4.22;0.35;;;15.00;99.90;;;;;;5014294;28;20037;-77
2022/10/01 08:55:16;;;;;;;3.95;0.13;;;15.20;99.90;;;;;;5013501;28;20504;-77
2022/10/01 08:57:48;;;;;;;4.72;0.90;;;15.30;99.90;;;;;;5014204;28;20030;-76
2022/10/01 09:00:16;;;;;;;10.93;0.98;;;15.40;99.90;;;;;;5013410;28;20026;-76
2022/10/01 09:02:43;;;;;;;8.90;0.70;;;15.50;99.90;;;;;;4996308;28;20112;-77
2022/10/01 09:05:31;;;;;;;3.78;0.10;;;15.70;99.90;;;;;;5013379;28;20097;-76
2022/10/01 09:08:15;;;;;;;4.40;0.63;;;15.90;99.90;;;;;;5014097;28;20481;-76
2022/10/01 09:10:55;;;;;;;7.15;1.42;;;16.10;99.90;;;;;;4995652;28;20109;-76
2022/10/01 09:13:50;;;;;;;4.30;0.52;;;16.40;99.90;;;;;;5016332;28;20029;-76
2022/10/01 09:16:38;;;;;;;3.95;0.15;;;16.40;99.90;;;;;;5017245;28;20022;-76
2022/10/01 09:19:39;;;;;;;3.40;0.40;;;16.30;99.90;;;;;;4999614;28;20030;-76
2022/10/01 09:22:24;;;;;;;4.55;0.20;;;16.10;99.90;;;;;;5017666;28;20044;-76
2022/10/01 09:25:05;;;;;;;5.93;0.43;;;16.00;99.90;;;;;;5017655;28;20018;-76
2022/10/01 09:27:33;;;;;;;6.60;0.63;;;15.80;99.90;;;;;;5016959;28;20131;-76
2022/10/01 09:30:23;;;;;;;4.55;0.10;;;15.60;99.90;;;;;;5016944;28;20018;-76
2022/10/01 09:33:14;;;;;;;9.90;0.73;;;15.50;99.90;;;;;;4999321;28;20068;-76
2022/10/01 09:35:45;;;;;;;7.95;0.65;;;15.50;99.90;;;;;;4999315;28;20080;-76
2022/10/01 09:38:20;;;;;;;7.95;0.40;;;15.80;99.90;;;;;;5016884;28;20030;-76
2022/10/01 09:40:45;;;;;;;7.60;0.20;;;16.00;99.90;;;;;;5017004;28;20034;-76
2022/10/01 09:43:11;;;;;;;7.25;0.82;;;16.40;99.90;;;;;;5016579;28;20532;-76
2022/10/01 09:45:37;;;;;;;8.88;0.47;;;16.80;99.90;;;;;;5016557;28;20057;-77
2022/10/01 09:48:18;;;;;;;12.48;0.75;;;17.10;99.90;;;;;;4999033;28;20055;-76
2022/10/01 09:50:53;;;;;;;3.13;0.08;;;17.30;99.90;;;;;;5017021;28;20026;-76
2022/10/01 09:53:25;;;;;;;4.38;0.57;;;17.20;99.90;;;;;;5017123;28;20033;-76
2022/10/01 09:55:57;;;;;;;4.80;0.45;;;16.60;99.90;;;;;;5016708;28;20389;-76
2022/10/01 09:58:32;;;;;;;5.45;0.38;;;16.10;99.90;;;;;;4998813;28;20026;-76
2022/10/01 10:01:00;;;;;;;8.07;0.40;;;15.80;99.90;;;;;;4998758;28;20109;-76
2022/10/01 10:03:29;;;;;;;7.63;0.43;;;15.70;99.90;;;;;;5016251;28;20104;-76
2022/10/01 10:05:56;;;;;;;7.60;0.98;;;15.80;99.90;;;;;;5016835;28;20271;-78
2022/10/01 10:08:29;;;;;;;4.35;0.17;;;16.10;99.90;;;;;;5017153;28;20414;-78
2022/10/01 10:10:59;;;;;;;7.95;0.65;;;16.50;99.90;;;;;;5016575;28;20080;-77
2022/10/01 10:13:37;;;;;;;4.15;0.17;;;16.70;99.90;;;;;;5017357;28;20034;-77
2022/10/01 10:16:25;;;;;;;7.15;0.63;;;16.60;99.90;;;;;;4999357;28;20076;-78
2022/10/01 10:18:53;;;;;;;13.55;0.90;;;16.50;99.90;;;;;;4999277;28;20022;-78
2022/10/01 10:21:33;;;;;;;8.88;0.30;;;16.30;99.90;;;;;;4999213;28;20112;-77
2022/10/01 10:24:01;;;;;;;9.27;0.10;;;16.20;99.90;;;;;;5015794;28;20045;-78
2022/10/01 10:26:41;;;;;;;6.43;0.67;;;16.40;99.90;;;;;;4998881;28;20026;-77
2022/10/01 10:29:23;;;;;;;9.15;0.15;;;16.40;99.90;;;;;;5016937;28;20144;-78
2022/10/01 10:31:50;;;;;;;4.97;0.22;;;16.50;99.90;;;;;;5016527;28;20508;-77
2022/10/01 10:34:23;;;;;;;7.43;0.00;;;16.80;99.90;;;;;;5017261;28;20080;-78
2022/10/01 10:36:56;;;;;;;4.25;0.10;;;17.00;99.90;;;;;;4998878;28;20018;-77
2022/10/01 10:39:32;;;;;;;8.48;1.13;;;17.20;99.90;;;;;;5016641;28;20475;-77
2022/10/01 10:42:00;;;;;;;1.58;0.00;;;17.40;99.90;;;;;;4999111;28;20389;-77
2022/10/01 10:44:33;;;;;;;6.28;1.13;;;17.60;99.90;;;;;;5016142;28;20049;-78
2022/10/01 10:47:02;;;;;;;3.45;0.15;;;17.60;99.90;;;;;;5015942;28;20034;-78
2022/10/01 10:49:35;;;;;;;4.32;0.80;;;17.50;99.90;;;;;;5016103;28;20543;-78
2022/10/01 10:52:01;;;;;;;3.33;0.05;;;17.20;99.90;;;;;;5016551;28;20105;-79
2022/10/01 10:54:36;;;;;;;5.30;0.47;;;16.90;99.90;;;;;;4999618;28;20041;-78
2022/10/01 10:57:26;;;;;;;1.77;0.32;;;16.70;99.90;;;;;;5000287;28;20036;-78
2022/10/01 11:00:11;;;;;;;6.63;0.50;;;16.80;99.90;;;;;;4985167;28;20034;-79
2022/10/01 11:02:40;;;;;;;5.88;0.45;;;17.00;99.90;;;;;;5016659;28;20061;-77
2022/10/01 11:05:20;;;;;;;5.55;0.05;;;17.20;99.90;;;;;;5015862;28;20057;-79
2022/10/01 11:07:47;;;;;;;3.85;0.00;;;17.50;99.90;;;;;;5017073;28;20546;-79
2022/10/01 11:10:25;;;;;;;3.25;0.68;;;17.60;99.90;;;;;;4998620;28;20492;-78
2022/10/01 11:13:23;;;;;;;5.50;0.10;;;17.90;99.90;;;;;;5016851;28;20037;-78
2022/10/01 11:15:56;;;;;;;5.82;0.60;;;17.80;99.90;;;;;;5017132;28;20029;-79
2022/10/01 11:18:33;;;;;;;2.95;0.10;;;17.70;99.90;;;;;;5016795;28;20026;-79
2022/10/01 11:21:02;;;;;;;3.00;0.40;;;17.50;99.90;;;;;;5016062;28;20029;-78
2022/10/01 11:23:46;;;;;;;3.28;0.00;;;17.50;99.90;;;;;;4998200;28;20069;-78
2022/10/01 11:26:17;;;;;;;9.50;0.90;;;17.30;99.90;;;;;;4998222;28;20107;-78
2022/10/01 11:28:53;;;;;;;6.18;1.10;;;17.10;99.90;;;;;;5016097;28;20041;-78
2022/10/01 11:31:35;;;;;;;4.35;0.15;;;16.70;99.90;;;;;;5016353;28;20101;-78
2022/10/01 11:34:32;;;;;;;6.25;0.10;;;16.40;99.90;;;;;;5016338;28;20022;-78
2022/10/01 11:37:20;;;;;;;4.72;0.20;;;16.50;99.90;;;;;;4966915;28;20496;-78
2022/10/01 11:39:50;;;;;;;6.03;0.32;;;16.70;99.90;;;;;;5016227;28;20088;-77
2022/10/01 11:42:26;;;;;;;9.27;0.15;;;16.90;99.90;;;;;;5015896;28;20034;-78
2022/10/01 11:45:03;;;;;;;3.78;0.20;;;17.10;99.90;;;;;;4998198;28;20030;-79
2022/10/01 11:48:11;;;;;;;7.72;0.38;;;17.20;99.90;;;;;;4998493;28;20393;-79
2022/10/01 11:50:44;;;;;;;2.88;0.32;;;17.30;99.90;;;;;;4993720;28;20069;-77
2022/10/01 11:53:29;;;;;;;6.30;0.73;;;17.60;99.90;;;;;;5015855;28;20065;-79
2022/10/01 11:58:53;;;;;;;;;;;17.90;99.90;;;;;;5016939;28;20068;-78
2022/10/01 12:01:48;;;;;;;5.38;0.10;;;17.70;99.90;;;;;;5015635;28;19905;-77
2022/10/01 12:04:31;;;;;;;4.72;0.20;;;17.60;99.90;;;;;;5015247;28;20026;-78
2022/10/01 12:07:06;;;;;;;9.55;0.45;;;17.40;99.90;;;;;;4998159;28;20080;-76
2022/10/01 12:09:49;;;;;;;6.07;0.32;;;17.20;99.90;;;;;;5014171;28;20072;-76
2022/10/01 12:12:39;;;;;;;2.70;0.00;;;17.00;99.90;;;;;;4996978;28;20084;-75
2022/10/01 12:15:17;;;;;;;6.05;0.98;;;16.90;99.90;;;;;;4999766;28;20037;-75
2022/10/01 12:17:45;;;;;;;5.72;0.30;;;16.90;99.90;;;;;;5014302;28;20026;-75
2022/10/01 12:20:24;;;;;;;10.10;0.77;;;16.80;99.90;;;;;;5014228;28;20165;-75
2022/10/01 12:22:52;;;;;;;4.20;0.60;;;16.90;99.90;;;;;;5014274;28;20096;-75
2022/10/01 12:25:20;;;;;;;5.72;0.65;;;17.30;99.90;;;;;;5014011;28;20100;-75
2022/10/01 12:27:55;;;;;;;2.38;0.40;;;17.70;99.90;;;;;;4996920;28;20551;-75
2022/10/01 12:30:31;;;;;;;5.07;0.10;;;18.20;99.90;;;;;;5013868;28;20021;-76
2022/10/01 12:33:37;;;;;;;11.00;0.43;;;18.70;99.90;;;;;;5014178;28;20029;-76
2022/10/01 12:36:27;;;;;;;6.70;1.75;;;19.20;99.90;;;;;;5012773;28;20050;-76
2022/10/01 12:39:06;;;;;;;4.43;0.47;;;19.20;99.90;;;;;;5013911;28;20481;-76
2022/10/01 12:41:41;;;;;;;5.57;0.40;;;19.40;99.90;;;;;;5013805;28;20032;-76
2022/10/01 12:44:35;;;;;;;6.43;0.00;;;19.30;99.90;;;;;;5014225;28;20213;-76
2022/10/01 12:47:24;;;;;;;4.45;0.20;;;19.00;99.90;;;;;;4981600;28;20030;-77
2022/10/01 12:50:14;;;;;;;4.75;0.10;;;19.00;99.90;;;;;;5014677;28;20033;-76
2022/10/01 12:53:07;;;;;;;4.05;0.08;;;19.10;99.90;;;;;;5014024;28;20088;-76
2022/10/01 12:55:41;;;;;;;6.93;0.30;;;19.20;99.90;;;;;;5014250;28;20030;-77
2022/10/01 12:58:38;;;;;;;5.65;0.15;;;19.50;99.90;;;;;;5013723;28;20026;-76
2022/10/01 13:01:08;;;;;;;5.82;0.25;;;19.40;99.90;;;;;;4996565;28;20022;-77
2022/10/01 13:03:51;;;;;;;3.67;0.63;;;19.00;99.90;;;;;;5015123;28;20119;-76
2022/10/01 13:06:39;;;;;;;5.13;0.32;;;18.60;99.90;;;;;;5013347;28;20037;-76
2022/10/01 13:09:20;;;;;;;5.90;0.63;;;18.10;99.90;;;;;;4995994;28;20018;-76
2022/10/01 13:12:01;;;;;;;4.53;0.75;;;18.00;99.90;;;;;;4995949;28;20401;-76
2022/10/01 13:14:31;;;;;;;4.88;0.55;;;17.80;99.90;;;;;;5013624;28;20500;-76
2022/10/01 13:17:51;;;;;;;4.57;0.00;;;17.60;99.90;;;;;;5013774;28;20472;-76